Time;durP1;ratioP1;P1;durP2;ratioP2;P2;SDS_P1;SDS_P2;PMS_P1;PMS_P2;Temp;Humidity;BMP_temperature;BMP_pressure;BME280_temperature;BME280_humidity;BME280_pressure;Samples;Min_cycle;Max_cycle;Signal;HPM_P1;HPM_P2
2023/08/04 00:00:34;;;;;;;5.53;2.65;;;17.00;99.90;;;;;;5019266;28;20029;-65
2023/08/04 00:02:59;;;;;;;5.80;3.25;;;17.00;99.90;;;;;;5018686;28;20022;-65
2023/08/04 00:05:25;;;;;;;8.48;2.72;;;17.00;99.90;;;;;;5018476;28;20033;-65
2023/08/04 00:07:51;;;;;;;9.98;3.58;;;17.00;99.90;;;;;;5018346;28;20022;-65
2023/08/04 00:10:17;;;;;;;4.25;2.58;;;17.00;99.90;;;;;;5002509;28;20117;-65
2023/08/04 00:12:42;;;;;;;8.25;3.25;;;16.90;99.90;;;;;;4999485;28;20026;-66
2023/08/04 00:15:08;;;;;;;6.80;3.58;;;17.00;99.90;;;;;;4999525;28;20029;-65
2023/08/04 00:17:36;;;;;;;6.90;3.60;;;17.00;99.90;;;;;;4999478;28;20048;-65
2023/08/04 00:20:03;;;;;;;5.95;2.95;;;16.90;99.90;;;;;;4998548;28;20032;-65
2023/08/04 00:22:28;;;;;;;7.70;3.13;;;16.90;99.90;;;;;;4998490;28;20034;-65
2023/08/04 00:24:54;;;;;;;6.88;3.58;;;16.90;99.90;;;;;;4998820;28;20026;-65
2023/08/04 00:27:19;;;;;;;7.40;3.17;;;16.80;99.90;;;;;;5017376;28;20053;-65
2023/08/04 00:29:45;;;;;;;7.72;3.22;;;16.70;99.90;;;;;;5018867;28;20029;-65
2023/08/04 00:32:10;;;;;;;8.00;3.08;;;16.60;99.90;;;;;;5017986;28;20030;-65
2023/08/04 00:34:36;;;;;;;8.38;3.25;;;16.60;99.90;;;;;;5017720;28;20026;-65
2023/08/04 00:37:01;;;;;;;6.47;3.47;;;16.60;99.90;;;;;;5018755;28;20037;-65
2023/08/04 00:39:27;;;;;;;6.63;3.70;;;16.50;99.90;;;;;;5018576;28;20081;-65
2023/08/04 00:41:52;;;;;;;9.25;3.13;;;16.50;99.90;;;;;;5017601;28;20045;-65
2023/08/04 00:44:18;;;;;;;12.75;4.00;;;16.50;99.90;;;;;;5017390;28;20041;-65
2023/08/04 00:46:44;;;;;;;6.78;3.30;;;16.40;99.90;;;;;;5018524;28;20030;-65
2023/08/04 00:49:10;;;;;;;5.47;3.78;;;16.40;99.90;;;;;;5017495;28;20029;-65
2023/08/04 00:51:37;;;;;;;6.50;3.75;;;16.40;99.90;;;;;;5017302;28;20022;-65
2023/08/04 00:54:03;;;;;;;9.77;3.58;;;16.30;99.90;;;;;;5017717;28;20026;-65
2023/08/04 00:56:31;;;;;;;7.55;3.53;;;16.30;99.90;;;;;;5018537;28;20050;-65
2023/08/04 00:58:58;;;;;;;5.32;3.53;;;16.30;99.90;;;;;;5017707;28;20019;-65
2023/08/04 01:01:23;;;;;;;11.00;3.80;;;16.20;99.90;;;;;;5007016;28;20027;-65
2023/08/04 01:03:51;;;;;;;7.15;3.28;;;16.20;99.90;;;;;;4997670;28;20022;-65
2023/08/04 01:06:28;;;;;;;5.45;3.08;;;16.30;99.90;;;;;;4998864;28;20050;-65
2023/08/04 01:09:20;;;;;;;8.18;3.17;;;16.30;99.90;;;;;;4998877;28;20057;-65
2023/08/04 01:12:10;;;;;;;6.65;3.30;;;16.30;99.90;;;;;;4998370;28;20121;-66
2023/08/04 01:14:41;;;;;;;9.52;3.65;;;16.30;99.90;;;;;;4997374;28;20121;-65
2023/08/04 01:17:23;;;;;;;6.22;3.40;;;16.40;99.90;;;;;;5003194;28;20053;-65
2023/08/04 01:19:49;;;;;;;8.23;3.65;;;16.40;99.90;;;;;;4997256;28;20039;-65
2023/08/04 01:22:14;;;;;;;7.78;3.88;;;16.40;99.90;;;;;;4998835;28;20101;-65
2023/08/04 01:24:40;;;;;;;7.80;3.30;;;16.40;99.90;;;;;;4998506;28;20030;-65
2023/08/04 01:27:08;;;;;;;4.88;3.30;;;16.50;99.90;;;;;;4998348;28;20053;-65
2023/08/04 01:29:33;;;;;;;6.28;3.58;;;16.40;99.90;;;;;;4997572;28;20113;-65
2023/08/04 01:31:59;;;;;;;9.27;3.72;;;16.40;99.90;;;;;;4997275;28;20058;-65
2023/08/04 01:34:25;;;;;;;7.72;3.83;;;16.40;99.90;;;;;;5014354;28;20041;-65
2023/08/04 01:36:51;;;;;;;11.02;4.38;;;16.40;99.90;;;;;;5016625;28;20025;-66
2023/08/04 01:39:16;;;;;;;7.15;3.53;;;16.40;99.90;;;;;;5017006;28;20103;-65
2023/08/04 01:41:42;;;;;;;8.30;3.70;;;16.30;99.90;;;;;;5016572;28;20018;-65
2023/08/04 01:44:07;;;;;;;13.25;3.75;;;16.30;99.90;;;;;;5016957;28;20072;-65
2023/08/04 01:46:33;;;;;;;10.00;3.83;;;16.20;99.90;;;;;;5016923;28;20041;-66
2023/08/04 01:48:58;;;;;;;7.60;4.15;;;16.20;99.90;;;;;;5017511;28;20088;-65
2023/08/04 01:51:24;;;;;;;7.18;3.85;;;16.20;99.90;;;;;;5012543;28;20072;-65
2023/08/04 01:53:49;;;;;;;8.57;4.22;;;16.20;99.90;;;;;;4997594;28;20034;-66
2023/08/04 01:56:15;;;;;;;7.03;3.95;;;16.10;99.90;;;;;;4997791;28;20026;-66
2023/08/04 01:58:40;;;;;;;7.53;3.45;;;16.10;99.90;;;;;;4997773;28;20033;-65
2023/08/04 02:01:06;;;;;;;11.00;3.38;;;16.10;99.90;;;;;;5013033;28;20026;-66
2023/08/04 02:03:33;;;;;;;6.57;3.65;;;16.00;99.90;;;;;;5013519;28;20081;-65
2023/08/04 02:05:58;;;;;;;8.68;3.85;;;16.00;99.90;;;;;;4997076;28;20041;-65
2023/08/04 02:08:24;;;;;;;9.68;4.10;;;16.00;99.90;;;;;;4996904;28;20056;-65
2023/08/04 02:10:50;;;;;;;8.93;3.95;;;16.00;99.90;;;;;;4996859;28;20022;-65
2023/08/04 02:13:16;;;;;;;7.05;4.30;;;15.90;99.90;;;;;;4997343;28;20031;-65
2023/08/04 02:15:42;;;;;;;9.32;4.43;;;15.90;99.90;;;;;;4997462;28;20044;-65
2023/08/04 02:18:07;;;;;;;7.90;4.30;;;16.00;99.90;;;;;;4997769;28;20029;-65
2023/08/04 02:20:33;;;;;;;9.82;4.38;;;15.90;99.90;;;;;;4996401;28;20026;-65
2023/08/04 02:22:58;;;;;;;9.63;3.72;;;15.90;99.90;;;;;;4996363;28;20050;-66
2023/08/04 02:25:24;;;;;;;6.00;3.72;;;15.90;99.90;;;;;;4996599;28;20073;-66
2023/08/04 02:27:49;;;;;;;7.78;4.07;;;15.90;99.90;;;;;;4996577;28;20037;-65
2023/08/04 02:30:15;;;;;;;8.77;4.38;;;16.00;99.90;;;;;;4996310;28;20060;-65
2023/08/04 02:32:40;;;;;;;13.48;4.43;;;16.00;99.90;;;;;;4996780;28;20086;-65
2023/08/04 02:35:06;;;;;;;10.88;4.47;;;16.00;99.90;;;;;;4997211;28;20030;-65
2023/08/04 02:37:32;;;;;;;6.95;4.20;;;16.00;99.90;;;;;;5002369;28;20030;-65
2023/08/04 02:39:57;;;;;;;8.85;3.97;;;15.90;99.90;;;;;;5016017;28;20041;-65
2023/08/04 02:42:25;;;;;;;8.30;4.28;;;15.90;99.90;;;;;;5016128;28;20149;-65
2023/08/04 02:44:54;;;;;;;8.15;3.95;;;15.90;99.90;;;;;;5015957;28;20026;-65
2023/08/04 02:47:20;;;;;;;8.88;4.60;;;16.00;99.90;;;;;;5016304;28;20057;-65
2023/08/04 02:49:46;;;;;;;7.80;4.13;;;15.90;99.90;;;;;;5016361;28;20109;-65
2023/08/04 02:52:14;;;;;;;10.48;4.85;;;15.90;99.90;;;;;;5016261;28;20026;-65
2023/08/04 02:54:40;;;;;;;9.00;4.47;;;15.90;99.90;;;;;;5015574;28;20036;-65
2023/08/04 02:57:06;;;;;;;8.35;4.63;;;15.90;99.90;;;;;;5016728;28;20026;-65
2023/08/04 02:59:31;;;;;;;7.20;4.20;;;15.90;99.90;;;;;;5016080;28;20081;-65
2023/08/04 03:01:57;;;;;;;10.18;4.43;;;15.90;99.90;;;;;;5016608;28;20064;-65
2023/08/04 03:04:23;;;;;;;7.93;5.07;;;15.90;99.90;;;;;;5015828;28;20064;-65
2023/08/04 03:06:48;;;;;;;8.05;4.13;;;15.90;99.90;;;;;;5016719;28;20036;-65
2023/08/04 03:09:14;;;;;;;11.70;4.18;;;15.80;99.90;;;;;;5015578;28;20068;-65
2023/08/04 03:11:39;;;;;;;11.27;4.65;;;15.80;99.90;;;;;;5015657;28;20113;-65
2023/08/04 03:14:05;;;;;;;8.40;4.13;;;15.80;99.90;;;;;;5019297;28;20026;-65
2023/08/04 03:16:30;;;;;;;7.57;4.18;;;15.90;99.90;;;;;;5019325;28;20117;-65
2023/08/04 03:18:56;;;;;;;7.13;4.80;;;15.90;99.90;;;;;;5019442;28;20022;-65
2023/08/04 03:21:21;;;;;;;8.13;4.72;;;15.90;99.90;;;;;;5020176;28;20037;-65
2023/08/04 03:23:47;;;;;;;8.20;4.38;;;15.90;99.90;;;;;;5019192;28;20033;-65
2023/08/04 03:26:12;;;;;;;9.00;4.55;;;15.90;99.90;;;;;;5018791;28;20080;-65
2023/08/04 03:28:38;;;;;;;11.05;4.20;;;15.90;99.90;;;;;;5020091;28;20038;-65
2023/08/04 03:31:03;;;;;;;7.40;4.63;;;16.00;99.90;;;;;;5019934;28;20140;-65
2023/08/04 03:33:29;;;;;;;13.05;5.38;;;16.00;99.90;;;;;;5019834;28;20065;-65
2023/08/04 03:35:54;;;;;;;10.63;5.13;;;16.00;99.90;;;;;;5019323;28;20026;-65
2023/08/04 03:38:20;;;;;;;11.98;5.20;;;16.00;99.90;;;;;;5018950;28;20056;-65
2023/08/04 03:40:45;;;;;;;9.60;6.18;;;16.00;99.90;;;;;;5019207;28;20104;-65
2023/08/04 03:43:11;;;;;;;11.38;5.63;;;16.10;99.90;;;;;;5014884;28;20014;-65
2023/08/04 03:45:36;;;;;;;8.18;4.80;;;16.10;99.90;;;;;;4999212;28;20027;-65
2023/08/04 03:48:02;;;;;;;15.23;6.07;;;16.10;99.90;;;;;;5000177;28;20023;-65
2023/08/04 03:50:28;;;;;;;11.57;5.80;;;16.10;99.90;;;;;;4999077;28;20045;-65
2023/08/04 03:52:53;;;;;;;10.55;5.13;;;16.10;99.90;;;;;;4999112;28;20027;-65
2023/08/04 03:55:19;;;;;;;7.97;4.85;;;16.10;99.90;;;;;;4999030;28;20030;-65
2023/08/04 03:57:45;;;;;;;9.60;5.15;;;16.00;99.90;;;;;;4998880;28;20034;-65
2023/08/04 04:00:10;;;;;;;9.32;4.70;;;16.00;99.90;;;;;;5000013;28;20018;-65
2023/08/04 04:02:36;;;;;;;8.90;4.70;;;16.00;99.90;;;;;;5013733;28;20030;-66
2023/08/04 04:05:02;;;;;;;10.38;4.60;;;15.90;99.90;;;;;;5019730;28;20018;-65
2023/08/04 04:07:28;;;;;;;9.77;4.32;;;15.90;99.90;;;;;;5019382;28;20025;-65
2023/08/04 04:09:53;;;;;;;10.88;4.82;;;15.90;99.90;;;;;;5019015;28;20095;-65
2023/08/04 04:12:19;;;;;;;8.10;4.65;;;15.80;99.90;;;;;;5018723;28;20053;-65
2023/08/04 04:14:44;;;;;;;7.93;4.50;;;15.80;99.90;;;;;;5018468;28;20022;-65
2023/08/04 04:17:10;;;;;;;10.35;4.53;;;15.80;99.90;;;;;;5014469;28;20027;-65
2023/08/04 04:19:36;;;;;;;8.38;5.10;;;15.90;99.90;;;;;;4998439;28;20072;-65
2023/08/04 04:22:01;;;;;;;13.07;5.10;;;15.90;99.90;;;;;;4999812;28;20113;-65
2023/08/04 04:24:27;;;;;;;13.07;4.85;;;15.90;99.90;;;;;;4998061;28;20022;-65
2023/08/04 04:26:52;;;;;;;9.98;5.60;;;16.00;99.90;;;;;;4998871;28;20030;-65
2023/08/04 04:29:18;;;;;;;13.18;6.30;;;16.00;99.90;;;;;;4998450;28;20050;-65
2023/08/04 04:31:44;;;;;;;10.55;6.25;;;16.00;99.90;;;;;;4999163;28;20030;-65
2023/08/04 04:34:09;;;;;;;13.90;6.97;;;16.00;99.90;;;;;;5014533;28;20041;-65
2023/08/04 04:36:35;;;;;;;8.32;5.57;;;16.10;99.90;;;;;;5018252;28;20033;-65
2023/08/04 04:39:01;;;;;;;10.38;5.20;;;16.20;99.90;;;;;;5018119;28;20017;-65
2023/08/04 04:41:27;;;;;;;13.30;5.85;;;16.30;99.90;;;;;;5018826;28;20022;-65
2023/08/04 04:43:53;;;;;;;9.98;5.82;;;16.40;99.90;;;;;;5018094;28;20076;-65
2023/08/04 04:46:19;;;;;;;9.27;5.57;;;16.40;99.90;;;;;;5018518;28;20038;-65
2023/08/04 04:48:44;;;;;;;9.82;5.63;;;16.40;99.90;;;;;;5017717;28;20068;-65
2023/08/04 04:51:10;;;;;;;10.45;5.93;;;16.40;99.90;;;;;;5016706;28;20064;-65
2023/08/04 04:53:35;;;;;;;10.98;5.70;;;16.30;99.90;;;;;;5018420;28;20037;-65
2023/08/04 04:56:01;;;;;;;14.57;6.13;;;16.30;99.90;;;;;;5017936;28;20026;-65
2023/08/04 04:58:26;;;;;;;7.75;5.78;;;16.30;99.90;;;;;;5017554;28;20045;-65
2023/08/04 05:00:52;;;;;;;7.93;4.60;;;16.30;99.90;;;;;;5017436;28;20058;-65
2023/08/04 05:03:18;;;;;;;13.82;5.30;;;16.40;99.90;;;;;;5017393;28;20022;-65
2023/08/04 05:05:45;;;;;;;7.80;5.13;;;16.40;99.90;;;;;;5018231;28;20029;-65
2023/08/04 05:08:10;;;;;;;8.48;4.90;;;16.60;99.90;;;;;;5017696;28;20045;-65
2023/08/04 05:10:36;;;;;;;10.93;4.95;;;16.60;99.90;;;;;;5017181;28;20053;-65
2023/08/04 05:13:01;;;;;;;13.07;5.78;;;16.60;99.90;;;;;;5017699;28;20033;-65
2023/08/04 05:15:27;;;;;;;14.52;7.30;;;16.70;99.90;;;;;;5017256;28;20037;-66
2023/08/04 05:17:52;;;;;;;10.35;5.20;;;16.70;99.90;;;;;;5017563;28;20026;-66
2023/08/04 05:20:18;;;;;;;9.77;5.55;;;16.80;99.90;;;;;;5039925;23;20064;-67
2023/08/04 05:22:43;;;;;;;13.20;5.75;;;16.70;99.90;;;;;;5017292;28;20032;-68
2023/08/04 05:25:09;;;;;;;9.52;5.70;;;16.70;99.90;;;;;;5032615;28;20030;-67
2023/08/04 05:27:35;;;;;;;9.40;5.38;;;16.70;99.90;;;;;;5017617;28;20032;-67
2023/08/04 05:30:01;;;;;;;10.38;5.63;;;16.70;99.90;;;;;;5016855;28;20129;-67
2023/08/04 05:32:27;;;;;;;11.82;5.53;;;16.70;99.90;;;;;;5016831;28;20053;-67
2023/08/04 05:34:52;;;;;;;15.57;5.53;;;16.60;99.90;;;;;;5016749;28;20083;-67
2023/08/04 05:37:18;;;;;;;10.93;5.90;;;16.60;99.90;;;;;;5016129;28;20022;-68
2023/08/04 05:39:43;;;;;;;9.80;5.28;;;16.70;99.90;;;;;;5015554;28;20018;-67
2023/08/04 05:42:09;;;;;;;10.43;5.60;;;16.80;99.90;;;;;;5017103;28;20079;-67
2023/08/04 05:44:34;;;;;;;9.75;5.47;;;16.80;99.90;;;;;;5016582;28;20041;-67
2023/08/04 05:47:00;;;;;;;13.27;5.65;;;16.90;99.90;;;;;;5017542;28;20029;-67
2023/08/04 05:49:26;;;;;;;12.70;6.45;;;16.90;99.90;;;;;;5017996;28;20026;-67
2023/08/04 05:51:51;;;;;;;11.23;6.38;;;16.90;99.90;;;;;;5016430;28;20061;-67
2023/08/04 05:54:17;;;;;;;11.68;6.55;;;16.80;99.90;;;;;;5016469;28;20025;-68
2023/08/04 05:56:42;;;;;;;12.68;6.45;;;16.90;99.90;;;;;;5015324;28;20045;-68
2023/08/04 05:59:08;;;;;;;9.57;6.13;;;17.00;99.90;;;;;;5017161;28;20021;-68
2023/08/04 06:01:33;;;;;;;11.95;6.18;;;16.90;99.90;;;;;;5016057;28;20035;-67
2023/08/04 06:03:59;;;;;;;10.88;6.18;;;17.00;99.90;;;;;;5017177;28;20029;-68
2023/08/04 06:06:25;;;;;;;14.88;7.07;;;17.00;99.90;;;;;;5017531;28;20030;-68
2023/08/04 06:08:50;;;;;;;15.45;6.88;;;17.10;99.90;;;;;;5017323;28;20037;-67
2023/08/04 06:11:16;;;;;;;13.82;6.95;;;17.10;99.90;;;;;;5016223;28;20112;-68
2023/08/04 06:13:41;;;;;;;17.50;7.30;;;17.20;99.90;;;;;;5015790;28;20036;-68
2023/08/04 06:16:07;;;;;;;14.65;7.13;;;17.30;99.90;;;;;;5016604;28;20029;-67
2023/08/04 06:18:32;;;;;;;16.38;8.10;;;17.20;99.90;;;;;;5016081;28;20018;-68
2023/08/04 06:20:58;;;;;;;16.08;7.53;;;17.20;99.90;;;;;;5017075;28;20160;-67
2023/08/04 06:23:24;;;;;;;10.77;7.47;;;17.30;99.90;;;;;;5016042;28;20017;-67
2023/08/04 06:25:49;;;;;;;15.60;7.05;;;17.30;99.90;;;;;;5016107;28;20069;-67
2023/08/04 06:28:15;;;;;;;10.02;6.28;;;17.40;99.90;;;;;;5015636;28;20048;-67
2023/08/04 06:30:41;;;;;;;13.55;6.72;;;17.50;99.90;;;;;;5016195;28;20029;-68
2023/08/04 06:33:07;;;;;;;14.13;7.07;;;17.50;99.90;;;;;;5017223;28;20058;-68
2023/08/04 06:35:32;;;;;;;12.07;7.07;;;17.40;99.90;;;;;;5016301;28;20094;-67
2023/08/04 06:37:58;;;;;;;11.68;6.50;;;17.50;99.90;;;;;;5016796;28;20021;-68
2023/08/04 06:40:23;;;;;;;12.07;6.72;;;17.60;99.90;;;;;;5014991;28;20026;-67
2023/08/04 06:42:49;;;;;;;13.02;6.63;;;17.70;99.90;;;;;;5016265;28;20145;-67
2023/08/04 06:45:15;;;;;;;16.17;6.50;;;17.70;99.90;;;;;;5015951;28;20029;-67
2023/08/04 06:47:41;;;;;;;12.43;6.57;;;17.60;99.90;;;;;;5017474;28;20048;-67
2023/08/04 06:50:07;;;;;;;13.23;6.70;;;17.60;99.90;;;;;;5020983;28;20090;-67
2023/08/04 06:52:33;;;;;;;14.65;8.40;;;17.60;99.90;;;;;;5020066;28;20113;-67
2023/08/04 06:54:59;;;;;;;22.75;8.25;;;17.60;99.90;;;;;;5018389;28;20108;-68
2023/08/04 06:57:24;;;;;;;12.68;7.90;;;17.50;99.90;;;;;;5020094;28;20153;-67
2023/08/04 06:59:50;;;;;;;13.15;7.45;;;17.50;99.90;;;;;;5020122;28;20033;-67
2023/08/04 07:02:15;;;;;;;17.35;8.45;;;17.60;99.90;;;;;;5019678;28;20029;-67
2023/08/04 07:04:41;;;;;;;14.43;7.28;;;17.70;99.90;;;;;;5019487;28;20030;-67
2023/08/04 07:07:06;;;;;;;18.17;8.25;;;17.70;99.90;;;;;;5019393;28;20033;-67
2023/08/04 07:09:32;;;;;;;12.85;8.63;;;17.70;99.90;;;;;;5019448;28;20022;-67
2023/08/04 07:11:57;;;;;;;9.52;6.63;;;17.60;99.90;;;;;;5019311;28;20124;-68
2023/08/04 07:14:23;;;;;;;17.02;7.70;;;17.60;99.90;;;;;;5002053;28;20058;-68
2023/08/04 07:16:48;;;;;;;19.80;8.63;;;17.60;99.90;;;;;;5016047;28;20030;-68
2023/08/04 07:19:15;;;;;;;12.13;7.95;;;17.60;99.90;;;;;;5000589;28;20065;-67
2023/08/04 07:21:41;;;;;;;14.57;7.95;;;17.50;99.90;;;;;;4999837;28;20039;-67
2023/08/04 07:24:07;;;;;;;15.05;7.32;;;17.40;99.90;;;;;;5010593;28;20038;-68
2023/08/04 07:26:34;;;;;;;15.80;8.00;;;17.40;99.90;;;;;;5013085;28;20080;-67
2023/08/04 07:29:01;;;;;;;16.08;7.45;;;17.40;99.90;;;;;;5008479;28;20029;-67
2023/08/04 07:31:27;;;;;;;16.67;7.10;;;17.30;99.90;;;;;;5031061;28;20130;-67
2023/08/04 07:34:03;;;;;;;13.30;7.28;;;17.40;99.90;;;;;;5007453;28;20073;-68
2023/08/04 07:36:29;;;;;;;15.77;7.60;;;17.40;99.90;;;;;;4999341;28;20054;-68
2023/08/04 07:38:55;;;;;;;14.80;7.30;;;17.40;99.90;;;;;;4999348;28;20116;-67
2023/08/04 07:41:24;;;;;;;18.15;7.47;;;17.50;99.90;;;;;;4999055;28;20026;-68
2023/08/04 07:43:50;;;;;;;13.43;7.43;;;17.50;99.90;;;;;;4999254;28;20061;-68
2023/08/04 07:46:33;;;;;;;14.80;7.28;;;17.60;99.90;;;;;;4999044;28;20117;-68
2023/08/04 07:48:59;;;;;;;14.70;6.32;;;17.60;99.90;;;;;;4999179;28;20117;-68
2023/08/04 07:51:26;;;;;;;13.77;6.13;;;17.60;99.90;;;;;;4999309;28;20042;-68
2023/08/04 07:53:52;;;;;;;13.40;5.95;;;17.70;99.90;;;;;;4999622;28;20022;-68
2023/08/04 07:56:18;;;;;;;12.05;6.15;;;18.00;99.90;;;;;;4998955;28;20044;-69
2023/08/04 07:58:43;;;;;;;11.88;6.03;;;18.00;99.90;;;;;;4999020;28;20022;-68
2023/08/04 08:01:09;;;;;;;13.98;6.22;;;17.90;99.90;;;;;;4998030;28;20018;-69
2023/08/04 08:03:35;;;;;;;10.57;6.28;;;17.90;99.90;;;;;;4999109;28;20019;-68
2023/08/04 08:06:02;;;;;;;14.18;5.05;;;17.80;99.90;;;;;;4999000;28;20034;-68
2023/08/04 08:08:28;;;;;;;8.02;4.82;;;17.80;99.90;;;;;;4998954;28;20025;-69
2023/08/04 08:10:54;;;;;;;8.00;4.10;;;18.00;99.90;;;;;;4999351;28;20031;-68
2023/08/04 08:13:20;;;;;;;14.93;5.10;;;18.10;99.90;;;;;;4999016;28;20027;-68
2023/08/04 08:15:46;;;;;;;8.65;5.00;;;18.10;99.90;;;;;;4998482;28;20080;-68
2023/08/04 08:18:12;;;;;;;11.50;5.32;;;18.00;99.90;;;;;;4998511;28;20022;-68
2023/08/04 08:20:41;;;;;;;9.13;4.50;;;18.00;99.90;;;;;;5016485;28;20033;-68
2023/08/04 08:23:08;;;;;;;8.80;4.63;;;17.90;99.90;;;;;;5018196;28;20026;-68
2023/08/04 08:25:35;;;;;;;12.40;4.70;;;17.80;99.90;;;;;;5018512;28;20037;-68
2023/08/04 08:28:01;;;;;;;7.50;4.78;;;17.80;99.90;;;;;;5019088;28;20088;-68
2023/08/04 08:30:28;;;;;;;9.73;4.65;;;17.80;99.90;;;;;;5018892;28;20034;-68
2023/08/04 08:32:53;;;;;;;11.85;4.97;;;17.80;99.90;;;;;;5017487;28;20026;-68
2023/08/04 08:35:19;;;;;;;7.85;4.35;;;17.90;99.90;;;;;;5017250;28;20036;-68
2023/08/04 08:37:45;;;;;;;7.43;4.53;;;17.90;99.90;;;;;;5018652;28;20024;-68
2023/08/04 08:40:11;;;;;;;6.25;4.05;;;18.00;99.90;;;;;;5017893;28;20057;-68
2023/08/04 08:42:36;;;;;;;10.98;4.07;;;18.00;99.90;;;;;;5017440;28;20028;-68
2023/08/04 08:45:02;;;;;;;6.07;3.97;;;18.00;99.90;;;;;;5017740;28;20113;-68
2023/08/04 08:47:38;;;;;;;13.05;5.35;;;18.10;99.90;;;;;;5017620;28;20056;-69
2023/08/04 08:50:06;;;;;;;12.45;4.85;;;18.00;99.90;;;;;;5017389;28;20029;-69
2023/08/04 08:52:35;;;;;;;5.45;3.55;;;18.10;99.90;;;;;;5017465;28;20034;-69
2023/08/04 08:55:03;;;;;;;8.77;4.45;;;18.10;99.90;;;;;;5017631;28;20037;-69
2023/08/04 08:57:29;;;;;;;8.77;4.38;;;18.20;99.90;;;;;;5017654;28;20025;-68
2023/08/04 09:00:00;;;;;;;8.75;3.72;;;18.10;99.90;;;;;;5018326;28;20029;-69
2023/08/04 09:02:26;;;;;;;9.48;5.20;;;18.30;99.90;;;;;;5017401;28;20034;-68
2023/08/04 09:04:52;;;;;;;9.98;4.47;;;18.20;99.90;;;;;;5018313;28;20036;-68
2023/08/04 09:07:18;;;;;;;17.20;5.53;;;18.20;99.90;;;;;;5017164;28;20058;-68
2023/08/04 09:09:56;;;;;;;14.20;5.60;;;18.20;99.90;;;;;;5017783;28;20084;-68
2023/08/04 09:12:25;;;;;;;16.02;5.95;;;18.10;99.90;;;;;;5017316;28;20060;-68
2023/08/04 09:14:53;;;;;;;8.75;4.07;;;18.00;99.90;;;;;;5016971;28;20061;-68
2023/08/04 09:17:39;;;;;;;9.82;4.15;;;18.00;99.90;;;;;;5017539;28;20024;-68
2023/08/04 09:20:06;;;;;;;6.18;3.60;;;18.00;99.90;;;;;;5017241;28;20018;-68
2023/08/04 09:22:37;;;;;;;5.15;3.53;;;18.00;99.90;;;;;;5017130;28;20030;-68
2023/08/04 09:25:04;;;;;;;9.77;3.70;;;18.00;99.90;;;;;;5017214;28;20029;-68
2023/08/04 09:27:41;;;;;;;5.85;3.50;;;18.00;99.90;;;;;;5017039;28;20053;-68
2023/08/04 09:30:09;;;;;;;12.27;4.35;;;18.10;99.90;;;;;;5016733;28;20033;-68
2023/08/04 09:32:41;;;;;;;10.82;4.60;;;18.10;99.90;;;;;;5017554;28;20052;-67
2023/08/04 09:35:08;;;;;;;8.55;4.43;;;18.00;99.90;;;;;;5017433;28;20038;-67
2023/08/04 09:37:35;;;;;;;8.23;4.03;;;18.10;99.90;;;;;;5016604;28;20026;-67
2023/08/04 09:40:03;;;;;;;16.48;5.05;;;18.10;99.90;;;;;;5016796;28;20088;-67
2023/08/04 09:42:29;;;;;;;34.08;7.75;;;18.20;99.90;;;;;;5016673;28;20034;-67
2023/08/04 09:44:55;;;;;;;8.02;2.30;;;18.20;99.90;;;;;;5017441;28;20033;-67
2023/08/04 09:47:24;;;;;;;1.80;1.45;;;18.00;99.90;;;;;;5017590;28;20025;-67
2023/08/04 09:49:51;;;;;;;1.73;1.10;;;17.80;99.90;;;;;;5016819;28;20256;-67
2023/08/04 09:52:25;;;;;;;2.70;0.98;;;17.70;99.90;;;;;;5016389;28;20026;-67
2023/08/04 09:54:53;;;;;;;4.28;1.33;;;17.60;99.90;;;;;;5017052;28;20022;-67
2023/08/04 09:57:19;;;;;;;1.48;1.30;;;17.50;99.90;;;;;;5033056;28;20026;-68
2023/08/04 09:59:47;;;;;;;3.45;1.65;;;17.40;99.90;;;;;;5016276;28;20025;-67
2023/08/04 10:02:14;;;;;;;3.63;1.38;;;17.40;99.90;;;;;;5016318;28;20033;-67
2023/08/04 10:04:40;;;;;;;1.92;1.00;;;17.40;99.90;;;;;;5016211;28;20038;-67
2023/08/04 10:07:09;;;;;;;3.08;1.65;;;17.30;99.90;;;;;;5017163;28;20104;-67
2023/08/04 10:09:35;;;;;;;3.30;1.70;;;17.20;99.90;;;;;;5016241;28;20030;-68
2023/08/04 10:12:01;;;;;;;3.03;2.17;;;17.20;99.90;;;;;;5017076;28;20037;-68
2023/08/04 10:14:27;;;;;;;3.15;1.80;;;17.10;99.90;;;;;;5016953;28;20200;-68
2023/08/04 10:16:57;;;;;;;2.70;1.40;;;17.10;99.90;;;;;;5016431;28;20046;-67
2023/08/04 10:19:23;;;;;;;2.13;0.95;;;17.00;99.90;;;;;;5016539;28;20022;-68
2023/08/04 10:21:50;;;;;;;2.63;1.33;;;16.90;99.90;;;;;;5015771;28;20109;-68
2023/08/04 10:24:26;;;;;;;2.78;1.95;;;16.90;99.90;;;;;;5022211;28;20022;-67
2023/08/04 10:27:21;;;;;;;4.32;1.73;;;17.00;99.90;;;;;;5005696;28;20040;-68
2023/08/04 10:30:24;;;;;;;3.60;1.75;;;17.10;99.90;;;;;;5023572;28;20021;-67
2023/08/04 10:32:49;;;;;;;4.40;2.00;;;17.10;99.90;;;;;;5023507;28;20056;-67
2023/08/04 10:35:21;;;;;;;6.78;2.17;;;17.30;99.90;;;;;;5022593;28;20057;-68
2023/08/04 10:37:49;;;;;;;2.97;1.30;;;17.30;99.90;;;;;;5023562;28;20060;-67
2023/08/04 10:40:27;;;;;;;6.20;2.00;;;17.30;99.90;;;;;;5022727;28;20022;-68
2023/08/04 10:43:20;;;;;;;1.95;1.30;;;17.40;99.90;;;;;;5040037;28;20026;-67
2023/08/04 10:45:55;;;;;;;2.45;1.70;;;17.40;99.90;;;;;;5022767;28;20029;-68
2023/08/04 10:48:21;;;;;;;7.40;1.50;;;17.30;99.90;;;;;;5022885;28;20036;-67
2023/08/04 10:50:50;;;;;;;2.78;1.20;;;17.20;99.90;;;;;;5023208;28;20030;-68
2023/08/04 10:53:16;;;;;;;4.72;1.58;;;17.30;99.90;;;;;;5022849;28;20022;-68
2023/08/04 10:55:55;;;;;;;2.80;1.48;;;17.40;99.90;;;;;;5022279;28;20030;-67
2023/08/04 10:58:22;;;;;;;1.85;1.05;;;17.50;99.90;;;;;;5023250;28;20034;-67
2023/08/04 11:00:48;;;;;;;3.63;1.58;;;17.60;99.90;;;;;;5023230;28;20026;-67
2023/08/04 11:03:28;;;;;;;1.60;1.13;;;17.60;99.90;;;;;;5022444;28;20022;-68
2023/08/04 11:05:54;;;;;;;1.75;1.08;;;17.70;99.90;;;;;;5023095;28;20028;-68
2023/08/04 11:08:21;;;;;;;2.95;1.33;;;17.70;99.90;;;;;;5022953;28;20026;-68
2023/08/04 11:10:48;;;;;;;1.10;0.80;;;17.80;99.90;;;;;;5012298;28;20026;-68
2023/08/04 11:13:17;;;;;;;1.38;1.15;;;17.80;99.90;;;;;;5022047;28;20029;-68
2023/08/04 11:15:43;;;;;;;1.85;1.08;;;17.90;99.90;;;;;;5023258;28;20026;-68
2023/08/04 11:18:13;;;;;;;3.53;1.17;;;18.00;99.90;;;;;;5022460;28;20026;-68
2023/08/04 11:20:40;;;;;;;2.63;1.20;;;18.00;99.90;;;;;;5042263;22;20005;-68
2023/08/04 11:23:10;;;;;;;3.33;1.27;;;18.10;99.90;;;;;;4983255;28;20035;-70
2023/08/04 11:25:37;;;;;;;1.52;1.13;;;18.20;99.90;;;;;;4999641;28;20030;-69
2023/08/04 11:28:04;;;;;;;1.42;1.10;;;18.30;99.90;;;;;;4982922;28;20030;-69
2023/08/04 11:30:32;;;;;;;3.45;1.30;;;18.30;99.90;;;;;;4982920;28;20030;-69
2023/08/04 11:32:57;;;;;;;2.53;1.30;;;18.40;99.90;;;;;;4983823;28;20030;-69
2023/08/04 11:35:23;;;;;;;1.45;1.13;;;18.50;99.90;;;;;;4981183;28;20037;-69
2023/08/04 11:37:48;;;;;;;3.10;1.50;;;18.60;99.90;;;;;;4979717;28;20030;-69
2023/08/04 11:40:25;;;;;;;1.48;1.13;;;18.70;99.90;;;;;;4979851;28;20018;-69
2023/08/04 11:42:51;;;;;;;4.43;1.65;;;18.80;99.90;;;;;;4980067;28;20030;-69
2023/08/04 11:45:18;;;;;;;2.58;1.50;;;18.80;99.90;;;;;;4980081;28;20030;-69
2023/08/04 11:47:44;;;;;;;3.53;1.58;;;18.90;99.90;;;;;;4980609;28;20034;-69
2023/08/04 11:50:10;;;;;;;2.72;0.90;;;19.10;99.90;;;;;;4980337;28;20069;-69
2023/08/04 11:52:38;;;;;;;2.75;1.33;;;19.20;99.90;;;;;;4980369;28;20117;-69
2023/08/04 11:55:05;;;;;;;3.35;1.50;;;19.20;99.90;;;;;;4975824;28;20033;-69
2023/08/04 11:57:31;;;;;;;3.13;1.15;;;19.40;99.90;;;;;;4969087;28;20035;-69
2023/08/04 12:00:01;;;;;;;1.90;1.30;;;19.40;99.90;;;;;;4960587;29;20120;-69
2023/08/04 12:02:28;;;;;;;3.55;1.27;;;19.50;99.90;;;;;;4980366;28;20019;-70
2023/08/04 12:05:07;;;;;;;1.83;1.20;;;19.50;99.90;;;;;;4966892;28;20023;-69
2023/08/04 12:07:33;;;;;;;5.03;1.63;;;19.60;99.90;;;;;;4960972;28;20035;-69
2023/08/04 12:09:59;;;;;;;4.22;1.13;;;19.60;99.90;;;;;;4960029;29;20027;-69
2023/08/04 12:12:38;;;;;;;3.05;1.50;;;19.50;99.90;;;;;;4959844;28;20023;-69
2023/08/04 12:15:52;;;;;;;4.20;1.63;;;19.50;99.90;;;;;;4960369;29;20031;-69
2023/08/04 12:18:28;;;;;;;4.22;1.60;;;19.60;99.90;;;;;;4959906;29;20088;-69
2023/08/04 12:20:53;;;;;;;3.75;1.80;;;19.50;99.90;;;;;;4976036;28;20059;-69
2023/08/04 12:23:19;;;;;;;2.95;1.60;;;19.50;99.90;;;;;;4960649;29;20027;-69
2023/08/04 12:25:44;;;;;;;2.80;1.05;;;19.50;99.90;;;;;;4976280;28;20035;-69
2023/08/04 12:28:11;;;;;;;2.00;1.27;;;19.50;99.90;;;;;;4979726;28;20034;-69
2023/08/04 12:30:37;;;;;;;4.88;2.22;;;19.50;99.90;;;;;;4979109;28;20027;-69
2023/08/04 12:33:03;;;;;;;3.90;1.73;;;19.60;99.90;;;;;;4979818;28;20045;-69
2023/08/04 12:35:28;;;;;;;2.38;1.42;;;19.70;99.90;;;;;;4978823;28;20034;-69
2023/08/04 12:37:54;;;;;;;3.30;1.60;;;19.80;99.90;;;;;;4979130;28;20034;-70
2023/08/04 12:40:24;;;;;;;3.13;1.65;;;19.80;99.90;;;;;;4979045;28;20019;-69
2023/08/04 12:42:50;;;;;;;6.33;1.17;;;20.00;99.90;;;;;;4978715;28;20046;-69